INFORMACIÓN METAR y TAF
METAR FOR EGLL
ADDS - METARS form results

(1110 UTC 18 January 2020)
Data provider http://aviationweather.gov/metar/data/
 
METAR text: EGLL 181050Z AUTO VRB03KT 9999 NCD 05/03 Q1028 NOSIG
Conditions at: EGLL (LONDON/HEATHROW , GB) observed 1050 UTC 18 January 2020
Temperature: 5.0°C (41°F)
Dewpoint: 3.0°C (37°F) [RH = 87%]
Pressure (altimeter): 30.35 inches Hg (1028.0 mb)
Winds: variable direction winds at 3 MPH (3 knots; 1.5 m/s)
Visibility: 6 or more miles (10+ km)
Ceiling: at least 12,000 feet AGL
Clouds: sky clear below 12,000 feet AGL
Weather: no significant weather observed at this time

METAR text: EGLL 181020Z AUTO 28006KT 9999 NCD 04/02 Q1027 NOSIG
Conditions at: EGLL (LONDON/HEATHROW , GB) observed 1020 UTC 18 January 2020
Temperature: 4.0°C (39°F)
Dewpoint: 2.0°C (36°F) [RH = 87%]
Pressure (altimeter): 30.32 inches Hg (1027.0 mb)
Winds: from the W (280 degrees) at 7 MPH (6 knots; 3.1 m/s)
Visibility: 6 or more miles (10+ km)
Ceiling: at least 12,000 feet AGL
Clouds: sky clear below 12,000 feet AGL
Weather: no significant weather observed at this time

Forecast for: EGLL (LONDON/HEATHROW , GB)
Text: TAF EGLL 181053Z 1812/1918 30006KT CAVOK
Forecast period: 1200 UTC 18 January 2020 to 1800 UTC 19 January 2020
Forecast type: FROM: standard forecast or significant change
Winds: from the WNW (300 degrees) at 7 MPH (6 knots; 3.1 m/s)
Visibility: 6 or more miles 10+ km)
Ceiling: unknown
Clouds: missing
Weather: NSW  (no significant weather)
Text: PROB30 1900/1909 8000
Forecast period: 0000 to 0900 UTC 19 January 2020
Forecast type: PROBABLE: 30 percent likelihood of the following during this time
Visibility: 5 miles (8 km)
Ceiling: unknown
Clouds: missing
Weather: no significant weather forecast for this period

MAPA DE AEROPUERTO

INFORMACIÓN DE PISTA
Pista 09L Longitud 12799 ft Ancho 164 ft
Elevación 79 ft Umbral desplazado 1007 ft Rumbo de pista 90
Pista 27R Longitud 12799 ft Ancho 164 ft
Elevación 78 ft Umbral desplazado 0 ft Rumbo de pista 270
Pista 09R Longitud 12001 ft Ancho 148 ft
Elevación 75 ft Umbral desplazado 1013 ft Rumbo de pista 90
Pista 27L Longitud 12001 ft Ancho 148 ft
Elevación 77 ft Umbral desplazado 0 ft Rumbo de pista 270

FRECUANCIAS DEL AEROPUERTO
Tipo APP Nombre APP Frecuencia 119.725 MHZ
Tipo ATIS Nombre ATIS Frecuencia 128.075 MHZ
Tipo CLD Nombre CLNC DEL Frecuencia 121.975 MHZ
Tipo GND Nombre GND Frecuencia 121.7 MHZ
Tipo TWR Nombre TWR Frecuencia 118.475 MHZ

RADIO AYUDAS DEL AEROPUERTO
Tipo VOR-DME Nombre London Frecuencia 113600 KHZ